createdAt,value
2018-04-08T00:02:15.511Z,2.43
2018-04-08T00:04:43.014Z,2.83
2018-04-08T00:07:10.527Z,4.07
2018-04-08T00:09:38.030Z,2.50
2018-04-08T00:12:05.505Z,3.43
2018-04-08T00:14:33.001Z,2.37
2018-04-08T00:17:00.477Z,2.57
2018-04-08T00:19:28.708Z,4.17
2018-04-08T00:21:56.285Z,2.40
2018-04-08T00:24:23.758Z,2.50
2018-04-08T00:26:51.238Z,2.10
2018-04-08T00:29:18.716Z,3.50
2018-04-08T00:31:46.278Z,2.13
2018-04-08T00:34:13.761Z,2.60
2018-04-08T00:36:41.238Z,2.23
2018-04-08T00:39:08.695Z,2.20
2018-04-08T00:41:36.204Z,3.03
2018-04-08T00:44:03.830Z,2.77
2018-04-08T00:46:31.313Z,1.97
2018-04-08T00:48:58.842Z,2.27
2018-04-08T00:51:27.093Z,4.27
2018-04-08T00:54:06.334Z,2.10
2018-04-08T00:56:33.825Z,3.73
2018-04-08T00:59:01.490Z,1.67
2018-04-08T01:01:28.965Z,1.60
2018-04-08T01:03:56.452Z,1.73
2018-04-08T01:06:24.687Z,2.03
2018-04-08T01:08:52.190Z,2.17
2018-04-08T01:11:19.652Z,2.20
2018-04-08T01:13:47.177Z,2.00
2018-04-08T01:16:14.666Z,2.33
2018-04-08T01:18:42.149Z,2.17
2018-04-08T01:21:09.608Z,5.07
2018-04-08T01:23:37.093Z,2.60
2018-04-08T01:26:04.578Z,2.03
2018-04-08T01:28:32.086Z,3.30
2018-04-08T01:31:00.381Z,3.13
2018-04-08T01:33:34.530Z,3.40
2018-04-08T01:36:02.057Z,2.57
2018-04-08T01:38:29.573Z,2.90
2018-04-08T01:40:57.078Z,2.23
2018-04-08T01:43:24.578Z,2.20
2018-04-08T01:45:52.062Z,2.20
2018-04-08T01:48:20.326Z,2.57
2018-04-08T01:50:47.813Z,2.57
2018-04-08T01:53:16.066Z,2.30
2018-04-08T01:55:43.557Z,2.30
2018-04-08T01:58:11.031Z,2.33
2018-04-08T02:00:38.516Z,2.37
2018-04-08T02:03:06.762Z,2.20
2018-04-08T02:05:34.255Z,2.20
2018-04-08T02:08:01.718Z,1.90
2018-04-08T02:10:29.207Z,2.93
2018-04-08T02:12:56.761Z,3.83
2018-04-08T02:15:24.251Z,2.50
2018-04-08T02:17:51.728Z,2.77
2018-04-08T02:20:19.230Z,2.83
2018-04-08T02:22:46.715Z,3.03
2018-04-08T02:25:14.194Z,1.93
2018-04-08T02:27:41.746Z,3.90
2018-04-08T02:30:09.238Z,2.90
2018-04-08T02:32:36.713Z,2.70
2018-04-08T02:35:04.182Z,4.80
2018-04-08T02:37:31.671Z,2.70
2018-04-08T02:39:59.146Z,2.77
2018-04-08T02:42:28.267Z,3.33
2018-04-08T02:44:56.562Z,4.07
2018-04-08T02:47:24.050Z,3.27
2018-04-08T02:49:52.294Z,2.77
2018-04-08T02:52:19.814Z,3.50
2018-04-08T02:54:48.088Z,3.83
2018-04-08T02:57:16.334Z,4.03
2018-04-08T02:59:43.820Z,3.50
2018-04-08T03:02:11.322Z,4.50
2018-04-08T03:04:39.553Z,3.53
2018-04-08T03:07:07.096Z,3.53
2018-04-08T03:09:34.584Z,4.43
2018-04-08T03:12:02.074Z,2.90
2018-04-08T03:14:29.549Z,3.10
2018-04-08T03:16:57.058Z,3.40
2018-04-08T03:19:24.538Z,3.47
2018-04-08T03:21:52.785Z,3.63
2018-04-08T03:24:20.255Z,3.63
2018-04-08T03:26:48.547Z,3.57
2018-04-08T03:29:16.047Z,3.20
2018-04-08T03:31:43.540Z,3.43
2018-04-08T03:34:11.072Z,3.17
2018-04-08T03:36:38.621Z,3.23
2018-04-08T03:39:06.110Z,3.20
2018-04-08T03:41:33.594Z,3.70
2018-04-08T03:44:01.076Z,3.90
2018-04-08T03:46:28.590Z,3.00
2018-04-08T03:48:56.069Z,3.03
2018-04-08T03:51:23.604Z,3.17
2018-04-08T03:53:51.891Z,3.10
2018-04-08T03:56:19.394Z,3.10
2018-04-08T03:58:46.867Z,2.73
2018-04-08T04:01:14.350Z,3.67
2018-04-08T04:03:41.823Z,5.27
2018-04-08T04:06:09.341Z,3.53
2018-04-08T04:08:36.813Z,3.80
2018-04-08T04:11:04.306Z,3.13
2018-04-08T04:13:32.586Z,3.53
2018-04-08T04:16:00.839Z,2.67
2018-04-08T04:18:40.126Z,3.80
2018-04-08T04:21:20.375Z,4.30
2018-04-08T04:23:59.487Z,3.23
2018-04-08T04:26:31.818Z,4.43
2018-04-08T04:28:59.269Z,3.37
2018-04-08T04:31:26.750Z,3.17
2018-04-08T04:33:54.226Z,3.13
2018-04-08T04:36:21.713Z,3.20
2018-04-08T04:38:49.965Z,3.07
2018-04-08T04:41:17.489Z,3.20
2018-04-08T04:43:44.954Z,2.57
2018-04-08T04:46:12.452Z,3.33
2018-04-08T04:48:39.930Z,2.50
2018-04-08T04:51:07.441Z,2.70
2018-04-08T04:53:34.958Z,3.83
2018-04-08T04:56:02.430Z,3.97
2018-04-08T04:58:29.938Z,3.37
2018-04-08T05:00:57.423Z,4.03
2018-04-08T05:03:24.923Z,4.07
2018-04-08T05:05:53.153Z,3.10
2018-04-08T05:08:20.631Z,2.97
2018-04-08T05:10:48.103Z,3.30
2018-04-08T05:13:16.358Z,3.27
2018-04-08T05:15:43.860Z,3.77
2018-04-08T05:18:11.327Z,3.13
2018-04-08T05:20:38.825Z,2.73
2018-04-08T05:23:06.363Z,4.10
2018-04-08T05:25:34.558Z,2.70
2018-04-08T05:28:02.090Z,3.37
2018-04-08T05:30:29.575Z,3.17
2018-04-08T05:32:57.071Z,3.87
2018-04-08T05:35:24.550Z,3.37
2018-04-08T05:37:52.073Z,3.17
2018-04-08T05:40:19.549Z,3.13
2018-04-08T05:42:47.042Z,2.70
2018-04-08T05:45:14.501Z,3.30
2018-04-08T05:47:41.996Z,3.10
2018-04-08T05:50:09.474Z,3.00
2018-04-08T05:52:36.975Z,3.90
2018-04-08T05:55:05.209Z,3.90
2018-04-08T05:57:32.729Z,4.07
2018-04-08T06:00:00.209Z,3.23
2018-04-08T06:02:28.464Z,3.27
2018-04-08T06:04:55.992Z,2.67
2018-04-08T06:07:23.477Z,3.57
2018-04-08T06:09:51.016Z,3.00
2018-04-08T06:12:19.307Z,2.50
2018-04-08T06:14:47.553Z,3.00
2018-04-08T06:17:15.043Z,4.50
2018-04-08T06:19:42.517Z,5.60
2018-04-08T06:22:10.028Z,3.43
2018-04-08T06:24:37.528Z,2.87
2018-04-08T06:27:05.029Z,3.40
2018-04-08T06:29:32.524Z,3.30
2018-04-08T06:32:00.776Z,4.40
2018-04-08T06:34:28.238Z,3.43
2018-04-08T06:36:55.766Z,2.90
2018-04-08T06:39:24.014Z,3.47
2018-04-08T06:41:51.506Z,2.80
2018-04-08T06:44:18.989Z,3.17
2018-04-08T06:46:47.240Z,3.37
2018-04-08T06:49:14.706Z,3.03
2018-04-08T06:51:42.257Z,3.47
2018-04-08T06:54:10.358Z,3.43
2018-04-08T06:56:37.869Z,3.83
2018-04-08T06:59:06.135Z,3.20
2018-04-08T07:01:33.625Z,3.27
2018-04-08T07:04:01.171Z,2.67
2018-04-08T07:06:28.646Z,2.97
2018-04-08T07:08:56.139Z,3.60
2018-04-08T07:11:24.208Z,3.07
2018-04-08T07:13:51.702Z,3.17
2018-04-08T07:16:19.955Z,3.77
2018-04-08T07:18:48.078Z,2.93
2018-04-08T07:21:15.670Z,2.50
2018-04-08T07:23:43.160Z,3.60
2018-04-08T07:26:10.658Z,4.73
2018-04-08T07:28:38.162Z,3.57
2018-04-08T07:31:06.415Z,3.17
2018-04-08T07:33:33.926Z,4.23
2018-04-08T07:36:01.397Z,3.30
2018-04-08T07:38:29.670Z,3.87
2018-04-08T07:40:57.149Z,3.07
2018-04-08T07:43:24.631Z,2.87
2018-04-08T07:45:52.934Z,3.30
2018-04-08T07:48:20.422Z,3.17
2018-04-08T07:50:47.903Z,2.97
2018-04-08T07:53:16.230Z,3.03
2018-04-08T07:55:43.750Z,2.70
2018-04-08T07:58:11.258Z,4.50
2018-04-08T08:00:38.742Z,3.40
2018-04-08T08:03:06.226Z,3.83
2018-04-08T08:05:33.709Z,4.13
2018-04-08T08:08:02.031Z,2.77
2018-04-08T08:10:29.511Z,3.80
2018-04-08T08:12:57.032Z,3.50
2018-04-08T08:15:24.518Z,4.17
2018-04-08T08:17:52.779Z,3.33
2018-04-08T08:20:20.262Z,4.50
2018-04-08T08:22:47.771Z,3.57
2018-04-08T08:25:15.243Z,3.90
2018-04-08T08:27:42.727Z,3.90
2018-04-08T08:30:10.282Z,3.27
2018-04-08T08:32:37.776Z,3.40
2018-04-08T08:35:05.280Z,4.03
2018-04-08T08:37:33.538Z,3.83
2018-04-08T08:40:01.030Z,3.70
2018-04-08T08:42:28.523Z,4.03
2018-04-08T08:44:56.075Z,3.03
2018-04-08T08:47:23.556Z,4.83
2018-04-08T08:49:51.843Z,3.93
2018-04-08T08:52:19.318Z,4.00
2018-04-08T08:54:46.815Z,4.10
2018-04-08T08:57:14.317Z,5.60
2018-04-08T08:59:41.810Z,4.20
2018-04-08T09:02:09.283Z,4.27
2018-04-08T09:04:36.770Z,3.90
2018-04-08T09:07:04.245Z,3.90
2018-04-08T09:09:31.734Z,4.53
2018-04-08T09:11:59.207Z,4.10
2018-04-08T09:14:27.470Z,4.57
2018-04-08T09:16:54.945Z,4.72
2018-04-08T09:19:23.370Z,4.53
2018-04-08T09:25:09.955Z,4.50
2018-04-08T09:27:37.486Z,4.53
2018-04-08T09:30:05.741Z,4.65
2018-04-08T09:32:33.234Z,4.18
2018-04-08T09:35:00.727Z,4.82
2018-04-08T09:37:28.971Z,4.60
2018-04-08T09:39:57.214Z,4.53
2018-04-08T09:42:24.702Z,4.95
2018-04-08T09:44:52.175Z,4.82
2018-04-08T09:47:19.715Z,3.90
2018-04-08T09:49:47.222Z,5.37
2018-04-08T09:52:14.742Z,4.55
2018-04-08T09:54:42.998Z,4.50
2018-04-08T09:57:10.492Z,4.57
2018-04-08T09:59:37.961Z,5.75
2018-04-08T10:02:11.244Z,4.90
2018-04-08T10:04:38.719Z,4.95
2018-04-08T10:07:06.206Z,4.47
2018-04-08T10:09:33.836Z,5.07
2018-04-08T10:12:01.451Z,5.07
2018-04-08T10:14:29.741Z,5.15
2018-04-08T10:16:57.229Z,4.97
2018-04-08T10:19:24.753Z,4.93
2018-04-08T10:21:52.241Z,4.78
2018-04-08T10:24:19.818Z,6.72
2018-04-08T10:26:47.348Z,5.18
2018-04-08T10:29:14.948Z,5.18
2018-04-08T10:31:43.556Z,4.78
2018-04-08T10:34:11.038Z,7.97
2018-04-08T10:36:38.535Z,5.07
2018-04-08T10:39:05.998Z,5.37
2018-04-08T10:41:33.583Z,5.78
2018-04-08T10:44:01.829Z,4.20
2018-04-08T10:46:29.304Z,4.80
2018-04-08T10:48:56.834Z,5.80
2018-04-08T10:51:24.334Z,5.30
2018-04-08T10:53:51.819Z,5.07
2018-04-08T10:56:19.324Z,5.18
2018-04-08T10:58:46.858Z,4.22
2018-04-08T11:01:16.752Z,4.90
2018-04-08T11:03:44.293Z,4.68
2018-04-08T11:06:11.788Z,5.05
2018-04-08T11:08:39.292Z,4.72
2018-04-08T11:11:06.872Z,5.03
2018-04-08T11:13:34.366Z,5.18
2018-04-08T11:16:01.843Z,4.53
2018-04-08T11:18:29.330Z,5.00
2018-04-08T11:20:57.570Z,5.50
2018-04-08T11:23:25.070Z,4.62
2018-04-08T11:25:52.542Z,4.03
2018-04-08T11:28:20.938Z,4.65
2018-04-08T11:30:48.410Z,4.32
2018-04-08T11:33:15.950Z,4.80
2018-04-08T11:35:43.468Z,4.45
2018-04-08T11:38:10.966Z,4.03
2018-04-08T11:40:39.253Z,4.03
2018-04-08T11:43:07.490Z,4.37
2018-04-08T11:45:36.622Z,4.00
2018-04-08T11:48:04.118Z,4.05
2018-04-08T11:50:32.461Z,3.83
2018-04-08T11:52:59.939Z,3.42
2018-04-08T11:55:27.426Z,3.75
2018-04-08T11:57:54.911Z,3.97
2018-04-08T12:00:22.401Z,3.78
2018-04-08T12:02:51.494Z,6.15
2018-04-08T12:05:18.989Z,4.53
2018-04-08T12:07:46.472Z,3.95
2018-04-08T12:10:13.987Z,3.97
2018-04-08T12:12:41.473Z,3.28
2018-04-08T12:15:08.974Z,3.58
2018-04-08T12:17:36.477Z,3.12
2018-04-08T12:20:03.956Z,3.03
2018-04-08T12:22:31.467Z,3.40
2018-04-08T12:24:59.735Z,2.90
2018-04-08T12:27:27.294Z,2.60
2018-04-08T12:29:54.823Z,2.10
2018-04-08T12:32:22.360Z,2.97
2018-04-08T12:34:49.852Z,3.12
2018-04-08T12:37:17.351Z,2.40
2018-04-08T12:39:44.826Z,2.78
2018-04-08T12:42:15.078Z,3.85
2018-04-08T12:44:42.554Z,2.40
2018-04-08T12:47:10.122Z,2.10
2018-04-08T12:49:38.211Z,2.65
2018-04-08T12:52:05.705Z,2.47
2018-04-08T12:54:33.196Z,2.03
2018-04-08T12:57:00.693Z,1.87
2018-04-08T12:59:29.043Z,2.40
2018-04-08T13:01:56.562Z,2.20
2018-04-08T13:04:24.833Z,2.03
2018-04-08T13:06:53.074Z,2.05
2018-04-08T13:09:22.259Z,2.87
2018-04-08T13:11:49.753Z,1.95
2018-04-08T13:14:17.262Z,2.03
2018-04-08T13:16:44.743Z,4.20
2018-04-08T13:19:12.998Z,2.58
2018-04-08T13:21:40.474Z,2.28
2018-04-08T13:24:08.063Z,2.35
2018-04-08T13:26:35.538Z,1.90
2018-04-08T13:29:03.046Z,1.98
2018-04-08T13:31:30.544Z,2.40
2018-04-08T13:33:58.025Z,1.80
2018-04-08T13:36:25.518Z,1.98
2018-04-08T13:38:53.002Z,1.80
2018-04-08T13:41:20.541Z,4.50
2018-04-08T13:43:48.022Z,1.62
2018-04-08T13:46:15.536Z,2.28
2018-04-08T13:48:43.061Z,3.33
2018-04-08T13:51:10.566Z,1.92
2018-04-08T13:53:38.816Z,2.00
2018-04-08T13:56:06.307Z,1.85
2018-04-08T13:58:33.781Z,1.60
2018-04-08T14:01:01.279Z,2.37
2018-04-08T14:03:29.518Z,1.62
2018-04-08T14:05:57.005Z,1.23
2018-04-08T14:08:25.287Z,1.27
2018-04-08T14:10:52.802Z,1.55
2018-04-08T14:13:21.042Z,1.45
2018-04-08T14:15:48.510Z,1.58
2018-04-08T14:18:16.068Z,1.52
2018-04-08T14:20:43.519Z,1.37
2018-04-08T14:23:11.006Z,1.67
2018-04-08T14:25:38.487Z,1.98
2018-04-08T14:28:06.016Z,1.40
2018-04-08T14:30:34.015Z,1.42
2018-04-08T14:33:01.509Z,2.50
2018-04-08T14:35:28.986Z,2.25
2018-04-08T14:37:56.486Z,2.40
2018-04-08T14:40:23.949Z,1.75
2018-04-08T14:42:51.444Z,2.35
2018-04-08T14:45:19.726Z,1.08
2018-04-08T14:47:47.192Z,2.17
2018-04-08T14:50:14.678Z,1.25
2018-04-08T14:52:42.919Z,1.25
2018-04-08T14:55:10.416Z,1.75
2018-04-08T14:57:37.895Z,1.58
2018-04-08T15:00:05.387Z,1.30
2018-04-08T15:02:32.862Z,1.33
2018-04-08T15:05:01.119Z,1.10
2018-04-08T15:07:28.599Z,2.35
2018-04-08T15:09:56.118Z,1.20
2018-04-08T15:12:23.632Z,2.17
2018-04-08T15:14:51.090Z,1.17
2018-04-08T15:17:18.626Z,1.40
2018-04-08T15:19:46.187Z,1.17
2018-04-08T15:22:13.718Z,5.28
2018-04-08T15:24:41.183Z,1.08
2018-04-08T15:27:08.666Z,1.98
2018-04-08T15:29:36.139Z,1.12
2018-04-08T15:32:03.681Z,1.30
2018-04-08T15:34:31.166Z,2.75
2018-04-08T15:36:59.444Z,1.58
2018-04-08T15:39:26.919Z,1.17
2018-04-08T15:41:54.411Z,1.02
2018-04-08T15:44:21.899Z,3.90
2018-04-08T15:46:50.151Z,2.20
2018-04-08T15:49:17.686Z,2.75
2018-04-08T15:51:45.194Z,1.45
2018-04-08T15:54:12.705Z,1.58
2018-04-08T15:56:40.966Z,1.45
2018-04-08T15:59:08.440Z,1.37
2018-04-08T16:01:35.932Z,1.80
2018-04-08T16:04:03.441Z,5.22
2018-04-08T16:06:30.917Z,1.67
2018-04-08T16:08:58.405Z,1.77
2018-04-08T16:11:25.899Z,1.20
2018-04-08T16:13:53.398Z,3.27
2018-04-08T16:16:21.661Z,1.00
2018-04-08T16:18:49.210Z,1.98
2018-04-08T16:21:16.747Z,2.10
2018-04-08T16:23:44.295Z,1.90
2018-04-08T16:26:12.541Z,1.77
2018-04-08T16:28:40.037Z,1.35
2018-04-08T16:31:07.502Z,2.10
2018-04-08T16:33:35.003Z,1.47
2018-04-08T16:36:03.251Z,1.97
2018-04-08T16:38:30.753Z,1.70
2018-04-08T16:40:58.230Z,2.97
2018-04-08T16:43:25.757Z,1.47
2018-04-08T16:45:53.226Z,2.63
2018-04-08T16:48:20.736Z,1.80
2018-04-08T16:50:48.230Z,1.43
2018-04-08T16:53:16.595Z,1.53
2018-04-08T16:55:44.084Z,2.20
2018-04-08T16:58:12.323Z,2.67
2018-04-08T17:00:39.813Z,1.60
2018-04-08T17:03:07.287Z,3.37
2018-04-08T17:05:34.776Z,2.33
2018-04-08T17:08:02.269Z,1.37
2018-04-08T17:10:30.564Z,1.50
2018-04-08T17:12:58.075Z,1.60
2018-04-08T17:15:25.588Z,1.10
2018-04-08T17:17:53.834Z,2.87
2018-04-08T17:20:21.339Z,1.63
2018-04-08T17:22:48.843Z,1.53
2018-04-08T17:25:16.383Z,1.47
2018-04-08T17:27:43.857Z,1.30
2018-04-08T17:30:11.393Z,1.10
2018-04-08T17:32:38.896Z,1.40
2018-04-08T17:35:06.396Z,1.47
2018-04-08T17:37:34.638Z,1.97
2018-04-08T17:40:02.142Z,2.07
2018-04-08T17:42:30.395Z,1.63
2018-04-08T17:44:57.934Z,1.37
2018-04-08T17:47:25.411Z,1.43
2018-04-08T17:49:52.891Z,3.03
2018-04-08T17:52:20.409Z,1.40
2018-04-08T17:54:47.936Z,2.90
2018-04-08T17:57:15.415Z,1.87
2018-04-08T17:59:42.886Z,1.50
2018-04-08T18:02:10.402Z,1.63
2018-04-08T18:04:37.924Z,1.90
2018-04-08T18:07:05.440Z,1.47
2018-04-08T18:09:32.906Z,1.60
2018-04-08T18:12:00.395Z,1.53
2018-04-08T18:14:28.695Z,1.67
2018-04-08T18:16:56.258Z,1.60
2018-04-08T18:19:23.733Z,1.90
2018-04-08T18:21:52.002Z,1.73
2018-04-08T18:24:19.595Z,1.60
2018-04-08T18:26:47.098Z,2.00
2018-04-08T18:29:14.588Z,1.83
2018-04-08T18:31:42.066Z,2.37
2018-04-08T18:34:09.566Z,2.20
2018-04-08T18:36:37.051Z,2.10
2018-04-08T18:39:06.330Z,2.10
2018-04-08T18:41:33.935Z,2.37
2018-04-08T18:44:01.470Z,1.63
2018-04-08T18:46:28.946Z,2.23
2018-04-08T18:48:56.574Z,1.90
2018-04-08T18:51:24.058Z,1.83
2018-04-08T18:53:51.542Z,2.17
2018-04-08T18:56:19.038Z,2.13
2018-04-08T18:58:47.534Z,2.07
2018-04-08T19:01:15.165Z,2.00
2018-04-08T19:03:42.699Z,2.00
2018-04-08T19:06:10.976Z,2.80
2018-04-08T19:08:38.514Z,2.50
2018-04-08T19:11:06.180Z,2.67
2018-04-08T19:13:33.910Z,4.10
2018-04-08T19:16:01.501Z,2.57
2018-04-08T19:18:29.071Z,2.90
2018-04-08T19:20:56.625Z,3.13
2018-04-08T19:23:24.904Z,4.23
2018-04-08T19:25:53.196Z,4.87
2018-04-08T19:28:20.678Z,3.33
2018-04-08T19:30:48.276Z,3.97
2018-04-08T19:33:15.765Z,2.97
2018-04-08T19:35:43.377Z,3.83
2018-04-08T19:38:10.907Z,2.87
2018-04-08T19:40:39.973Z,2.83
2018-04-08T19:43:07.684Z,3.20
2018-04-08T19:45:35.179Z,3.10
2018-04-08T19:48:02.734Z,2.20
2018-04-08T19:50:30.223Z,2.70
2018-04-08T19:52:57.697Z,3.13
2018-04-08T19:55:25.983Z,2.47
2018-04-08T19:57:53.483Z,2.30
2018-04-08T20:00:20.996Z,2.73
2018-04-08T20:02:50.187Z,2.07
2018-04-08T20:05:18.492Z,2.50
2018-04-08T20:07:46.597Z,2.93
2018-04-08T20:10:14.089Z,2.00
2018-04-08T20:12:41.704Z,2.23
2018-04-08T20:15:09.235Z,2.07
2018-04-08T20:17:36.764Z,2.70
2018-04-08T20:20:04.491Z,6.20
2018-04-08T20:22:32.029Z,3.00
2018-04-08T20:24:59.567Z,5.10
2018-04-08T20:27:27.855Z,3.23
2018-04-08T20:29:55.622Z,2.33
2018-04-08T20:32:23.120Z,1.93
2018-04-08T20:34:51.434Z,2.40
2018-04-08T20:37:18.931Z,1.70
2018-04-08T20:39:46.482Z,2.50
2018-04-08T20:42:14.087Z,2.13
2018-04-08T20:44:41.574Z,2.40
2018-04-08T20:47:09.108Z,4.83
2018-04-08T20:49:36.610Z,2.10
2018-04-08T20:52:04.102Z,2.43
2018-04-08T20:54:31.593Z,2.30
2018-04-08T20:56:59.096Z,2.20
2018-04-08T20:59:26.586Z,3.37
2018-04-08T21:01:54.075Z,1.93
2018-04-08T21:04:21.591Z,2.07
2018-04-08T21:06:49.110Z,2.17
2018-04-08T21:09:16.604Z,2.30
2018-04-08T21:11:44.080Z,2.37
2018-04-08T21:14:12.346Z,2.33
2018-04-08T21:16:39.830Z,1.80
2018-04-08T21:19:08.085Z,1.80
2018-04-08T21:21:35.559Z,2.00
2018-04-08T21:24:03.062Z,1.43
2018-04-08T21:26:30.546Z,2.00
2018-04-08T21:28:58.777Z,2.03
2018-04-08T21:31:26.270Z,2.30
2018-04-08T21:33:53.747Z,2.30
2018-04-08T21:36:21.332Z,1.73
2018-04-08T21:38:48.827Z,2.00
2018-04-08T21:41:17.130Z,2.00
2018-04-08T21:43:44.621Z,4.13
2018-04-08T21:46:12.111Z,2.20
2018-04-08T21:48:39.581Z,1.70
2018-04-08T21:51:07.104Z,1.50
2018-04-08T21:53:34.601Z,2.07
2018-04-08T21:56:02.089Z,2.50
2018-04-08T21:58:29.607Z,4.30
2018-04-08T22:00:57.871Z,2.57
2018-04-08T22:03:25.341Z,2.20
2018-04-08T22:05:52.826Z,2.63
2018-04-08T22:08:20.323Z,1.60
2018-04-08T22:10:47.842Z,1.53
2018-04-08T22:13:15.338Z,2.30
2018-04-08T22:15:42.799Z,2.23
2018-04-08T22:18:10.299Z,2.67
2018-04-08T22:20:37.790Z,6.17
2018-04-08T22:23:05.274Z,2.10
2018-04-08T22:25:32.754Z,2.00
2018-04-08T22:28:00.238Z,2.10
2018-04-08T22:30:28.535Z,2.03
2018-04-08T22:32:56.033Z,2.07
2018-04-08T22:35:23.498Z,2.43
2018-04-08T22:37:51.006Z,2.40
2018-04-08T22:40:18.577Z,1.73
2018-04-08T22:42:46.058Z,2.33
2018-04-08T22:45:13.538Z,2.40
2018-04-08T22:47:41.031Z,2.43
2018-04-08T22:50:08.491Z,2.27
2018-04-08T22:52:35.968Z,2.10
2018-04-08T22:55:03.526Z,2.40
2018-04-08T22:57:31.178Z,2.43
2018-04-08T22:59:58.669Z,2.23
2018-04-08T23:02:26.177Z,2.00
2018-04-08T23:04:54.458Z,2.13
2018-04-08T23:07:21.929Z,2.70
2018-04-08T23:09:49.422Z,2.13
2018-04-08T23:12:17.653Z,2.10
2018-04-08T23:14:45.138Z,2.23
2018-04-08T23:17:12.625Z,2.47
2018-04-08T23:19:40.126Z,2.67
2018-04-08T23:22:08.370Z,3.10
2018-04-08T23:24:35.854Z,2.30
2018-04-08T23:27:03.345Z,2.67
2018-04-08T23:29:30.930Z,2.13
2018-04-08T23:31:58.413Z,2.07
2018-04-08T23:34:26.661Z,1.87
2018-04-08T23:36:54.131Z,1.90
2018-04-08T23:39:21.618Z,2.30
2018-04-08T23:41:49.154Z,1.97
2018-04-08T23:44:16.639Z,2.50
2018-04-08T23:46:44.105Z,1.70
2018-04-08T23:49:11.571Z,2.90
2018-04-08T23:51:39.066Z,1.97
2018-04-08T23:54:06.538Z,2.07
2018-04-08T23:56:34.033Z,2.30
2018-04-08T23:59:02.359Z,2.17
